sensor_id;sensor_type;location;lat;lon;timestamp;P1;durP1;ratioP1;P2;durP2;ratioP2
84956;SDS011;75252;45.438;-73.814;2024-01-10T00:02:01;5.78;;;4.35;;
84956;SDS011;75252;45.438;-73.814;2024-01-10T00:04:28;7.22;;;4.78;;
84956;SDS011;75252;45.438;-73.814;2024-01-10T00:06:54;7.10;;;4.63;;
84956;SDS011;75252;45.438;-73.814;2024-01-10T00:09:20;5.95;;;4.25;;
84956;SDS011;75252;45.438;-73.814;2024-01-10T00:11:45;7.63;;;4.63;;
84956;SDS011;75252;45.438;-73.814;2024-01-10T00:14:11;7.28;;;5.00;;
84956;SDS011;75252;45.438;-73.814;2024-01-10T00:16:37;7.03;;;4.28;;
84956;SDS011;75252;45.438;-73.814;2024-01-10T00:19:03;7.35;;;3.72;;
84956;SDS011;75252;45.438;-73.814;2024-01-10T00:21:29;6.75;;;4.72;;
84956;SDS011;75252;45.438;-73.814;2024-01-10T00:23:56;6.95;;;5.70;;
84956;SDS011;75252;45.438;-73.814;2024-01-10T00:26:23;6.07;;;4.43;;
84956;SDS011;75252;45.438;-73.814;2024-01-10T00:28:48;9.13;;;5.38;;
84956;SDS011;75252;45.438;-73.814;2024-01-10T00:31:14;8.55;;;5.25;;
84956;SDS011;75252;45.438;-73.814;2024-01-10T00:33:40;5.60;;;4.03;;
84956;SDS011;75252;45.438;-73.814;2024-01-10T00:36:06;6.30;;;5.30;;
84956;SDS011;75252;45.438;-73.814;2024-01-10T00:38:32;7.53;;;4.90;;
84956;SDS011;75252;45.438;-73.814;2024-01-10T00:40:58;10.23;;;5.75;;
84956;SDS011;75252;45.438;-73.814;2024-01-10T00:43:24;7.82;;;5.45;;
84956;SDS011;75252;45.438;-73.814;2024-01-10T00:45:50;10.57;;;5.05;;
84956;SDS011;75252;45.438;-73.814;2024-01-10T00:48:16;8.52;;;4.72;;
84956;SDS011;75252;45.438;-73.814;2024-01-10T00:50:45;5.72;;;4.43;;
84956;SDS011;75252;45.438;-73.814;2024-01-10T00:53:11;8.23;;;4.75;;
84956;SDS011;75252;45.438;-73.814;2024-01-10T00:55:38;7.97;;;5.03;;
84956;SDS011;75252;45.438;-73.814;2024-01-10T00:58:04;10.18;;;5.80;;
84956;SDS011;75252;45.438;-73.814;2024-01-10T01:00:31;8.52;;;4.22;;
84956;SDS011;75252;45.438;-73.814;2024-01-10T01:02:57;6.15;;;4.80;;
84956;SDS011;75252;45.438;-73.814;2024-01-10T01:05:23;8.35;;;4.35;;
84956;SDS011;75252;45.438;-73.814;2024-01-10T01:07:49;6.70;;;5.53;;
84956;SDS011;75252;45.438;-73.814;2024-01-10T01:10:15;7.07;;;4.97;;
84956;SDS011;75252;45.438;-73.814;2024-01-10T01:12:40;9.20;;;4.97;;
84956;SDS011;75252;45.438;-73.814;2024-01-10T01:15:06;9.05;;;5.93;;
84956;SDS011;75252;45.438;-73.814;2024-01-10T01:17:33;8.02;;;4.88;;
84956;SDS011;75252;45.438;-73.814;2024-01-10T01:19:59;6.72;;;4.82;;
84956;SDS011;75252;45.438;-73.814;2024-01-10T01:22:25;6.93;;;4.78;;
84956;SDS011;75252;45.438;-73.814;2024-01-10T01:24:51;6.63;;;4.47;;
84956;SDS011;75252;45.438;-73.814;2024-01-10T01:27:17;6.22;;;4.47;;
84956;SDS011;75252;45.438;-73.814;2024-01-10T01:29:43;5.70;;;3.95;;
84956;SDS011;75252;45.438;-73.814;2024-01-10T01:32:09;8.10;;;3.95;;
84956;SDS011;75252;45.438;-73.814;2024-01-10T01:34:35;8.02;;;4.50;;
84956;SDS011;75252;45.438;-73.814;2024-01-10T01:37:01;6.30;;;3.60;;
84956;SDS011;75252;45.438;-73.814;2024-01-10T01:39:27;4.97;;;3.45;;
84956;SDS011;75252;45.438;-73.814;2024-01-10T01:41:52;5.15;;;3.97;;
84956;SDS011;75252;45.438;-73.814;2024-01-10T01:44:18;4.97;;;3.90;;
84956;SDS011;75252;45.438;-73.814;2024-01-10T01:46:45;10.18;;;4.15;;
84956;SDS011;75252;45.438;-73.814;2024-01-10T01:49:11;4.00;;;3.50;;
84956;SDS011;75252;45.438;-73.814;2024-01-10T01:51:37;5.28;;;3.38;;
84956;SDS011;75252;45.438;-73.814;2024-01-10T01:54:06;4.15;;;3.33;;
84956;SDS011;75252;45.438;-73.814;2024-01-10T01:56:39;3.95;;;3.30;;
84956;SDS011;75252;45.438;-73.814;2024-01-10T01:59:06;5.20;;;3.70;;
84956;SDS011;75252;45.438;-73.814;2024-01-10T02:01:37;4.55;;;3.38;;
84956;SDS011;75252;45.438;-73.814;2024-01-10T02:04:04;5.10;;;3.55;;
84956;SDS011;75252;45.438;-73.814;2024-01-10T02:06:30;3.92;;;3.00;;
84956;SDS011;75252;45.438;-73.814;2024-01-10T02:08:57;4.30;;;3.08;;
84956;SDS011;75252;45.438;-73.814;2024-01-10T02:11:23;2.90;;;2.50;;
84956;SDS011;75252;45.438;-73.814;2024-01-10T02:13:50;2.95;;;2.45;;
84956;SDS011;75252;45.438;-73.814;2024-01-10T02:16:19;3.25;;;2.53;;
84956;SDS011;75252;45.438;-73.814;2024-01-10T02:18:49;2.70;;;2.40;;
84956;SDS011;75252;45.438;-73.814;2024-01-10T02:21:16;3.67;;;2.65;;
84956;SDS011;75252;45.438;-73.814;2024-01-10T02:23:47;3.33;;;2.42;;
84956;SDS011;75252;45.438;-73.814;2024-01-10T02:26:13;3.33;;;2.50;;
84956;SDS011;75252;45.438;-73.814;2024-01-10T02:28:40;4.18;;;3.28;;
84956;SDS011;75252;45.438;-73.814;2024-01-10T02:31:06;2.78;;;2.22;;
84956;SDS011;75252;45.438;-73.814;2024-01-10T02:33:32;3.42;;;3.05;;
84956;SDS011;75252;45.438;-73.814;2024-01-10T02:35:58;3.40;;;2.97;;
84956;SDS011;75252;45.438;-73.814;2024-01-10T02:38:24;3.28;;;2.88;;
84956;SDS011;75252;45.438;-73.814;2024-01-10T02:40:50;2.88;;;2.13;;
84956;SDS011;75252;45.438;-73.814;2024-01-10T02:43:16;4.65;;;2.58;;
84956;SDS011;75252;45.438;-73.814;2024-01-10T02:45:42;3.50;;;3.03;;
84956;SDS011;75252;45.438;-73.814;2024-01-10T02:48:07;3.05;;;2.53;;
84956;SDS011;75252;45.438;-73.814;2024-01-10T02:50:33;2.65;;;1.88;;
84956;SDS011;75252;45.438;-73.814;2024-01-10T02:52:59;3.60;;;2.65;;
84956;SDS011;75252;45.438;-73.814;2024-01-10T02:55:25;4.65;;;2.75;;
84956;SDS011;75252;45.438;-73.814;2024-01-10T02:57:51;3.08;;;2.33;;
84956;SDS011;75252;45.438;-73.814;2024-01-10T03:00:17;2.92;;;2.28;;
84956;SDS011;75252;45.438;-73.814;2024-01-10T03:02:44;2.45;;;2.08;;
84956;SDS011;75252;45.438;-73.814;2024-01-10T03:05:10;2.55;;;2.08;;
84956;SDS011;75252;45.438;-73.814;2024-01-10T03:07:36;2.85;;;2.35;;
84956;SDS011;75252;45.438;-73.814;2024-01-10T03:10:02;3.05;;;2.50;;
84956;SDS011;75252;45.438;-73.814;2024-01-10T03:12:29;3.80;;;2.80;;
84956;SDS011;75252;45.438;-73.814;2024-01-10T03:14:54;2.95;;;2.28;;
84956;SDS011;75252;45.438;-73.814;2024-01-10T03:17:20;3.03;;;2.47;;
84956;SDS011;75252;45.438;-73.814;2024-01-10T03:19:47;5.30;;;2.75;;
84956;SDS011;75252;45.438;-73.814;2024-01-10T03:22:13;2.45;;;2.20;;
84956;SDS011;75252;45.438;-73.814;2024-01-10T03:24:39;2.90;;;2.53;;
84956;SDS011;75252;45.438;-73.814;2024-01-10T03:27:05;2.30;;;2.10;;
84956;SDS011;75252;45.438;-73.814;2024-01-10T03:29:31;2.88;;;2.28;;
84956;SDS011;75252;45.438;-73.814;2024-01-10T03:31:57;2.33;;;2.13;;
84956;SDS011;75252;45.438;-73.814;2024-01-10T03:34:23;2.75;;;2.22;;
84956;SDS011;75252;45.438;-73.814;2024-01-10T03:36:49;2.90;;;2.42;;
84956;SDS011;75252;45.438;-73.814;2024-01-10T03:39:15;2.17;;;1.80;;
84956;SDS011;75252;45.438;-73.814;2024-01-10T03:41:40;2.28;;;1.90;;
84956;SDS011;75252;45.438;-73.814;2024-01-10T03:44:06;3.25;;;2.30;;
84956;SDS011;75252;45.438;-73.814;2024-01-10T03:46:32;3.10;;;2.13;;
84956;SDS011;75252;45.438;-73.814;2024-01-10T03:48:58;2.00;;;1.67;;
84956;SDS011;75252;45.438;-73.814;2024-01-10T03:51:24;2.78;;;2.22;;
84956;SDS011;75252;45.438;-73.814;2024-01-10T03:53:50;1.95;;;1.75;;
84956;SDS011;75252;45.438;-73.814;2024-01-10T03:56:16;2.13;;;1.85;;
84956;SDS011;75252;45.438;-73.814;2024-01-10T03:58:42;3.40;;;2.22;;
84956;SDS011;75252;45.438;-73.814;2024-01-10T04:01:08;3.58;;;2.00;;
84956;SDS011;75252;45.438;-73.814;2024-01-10T04:03:34;2.90;;;1.90;;
84956;SDS011;75252;45.438;-73.814;2024-01-10T04:06:01;2.55;;;2.05;;
84956;SDS011;75252;45.438;-73.814;2024-01-10T04:08:27;2.85;;;2.20;;
84956;SDS011;75252;45.438;-73.814;2024-01-10T04:10:53;3.95;;;2.00;;
84956;SDS011;75252;45.438;-73.814;2024-01-10T04:13:19;3.28;;;2.50;;
84956;SDS011;75252;45.438;-73.814;2024-01-10T04:15:45;3.03;;;2.05;;
84956;SDS011;75252;45.438;-73.814;2024-01-10T04:18:11;2.80;;;2.28;;
84956;SDS011;75252;45.438;-73.814;2024-01-10T04:20:36;2.53;;;2.05;;
84956;SDS011;75252;45.438;-73.814;2024-01-10T04:23:02;3.22;;;2.40;;
84956;SDS011;75252;45.438;-73.814;2024-01-10T04:25:28;2.63;;;2.10;;
84956;SDS011;75252;45.438;-73.814;2024-01-10T04:27:54;2.13;;;1.85;;
84956;SDS011;75252;45.438;-73.814;2024-01-10T04:30:21;2.97;;;2.00;;
84956;SDS011;75252;45.438;-73.814;2024-01-10T04:32:47;2.35;;;1.90;;
84956;SDS011;75252;45.438;-73.814;2024-01-10T04:35:13;1.70;;;1.55;;
84956;SDS011;75252;45.438;-73.814;2024-01-10T04:37:38;1.88;;;1.48;;
84956;SDS011;75252;45.438;-73.814;2024-01-10T04:40:04;3.35;;;1.65;;
84956;SDS011;75252;45.438;-73.814;2024-01-10T04:42:31;1.75;;;1.33;;
84956;SDS011;75252;45.438;-73.814;2024-01-10T04:44:57;1.60;;;1.50;;
84956;SDS011;75252;45.438;-73.814;2024-01-10T04:47:23;1.58;;;1.42;;
84956;SDS011;75252;45.438;-73.814;2024-01-10T04:49:48;1.45;;;1.35;;
84956;SDS011;75252;45.438;-73.814;2024-01-10T04:52:14;1.42;;;1.33;;
84956;SDS011;75252;45.438;-73.814;2024-01-10T04:54:40;1.88;;;1.38;;
84956;SDS011;75252;45.438;-73.814;2024-01-10T04:57:06;1.55;;;1.45;;
84956;SDS011;75252;45.438;-73.814;2024-01-10T04:59:32;1.13;;;1.13;;
84956;SDS011;75252;45.438;-73.814;2024-01-10T05:01:59;1.67;;;1.58;;
84956;SDS011;75252;45.438;-73.814;2024-01-10T05:04:25;1.13;;;1.10;;
84956;SDS011;75252;45.438;-73.814;2024-01-10T05:06:51;1.02;;;1.02;;
84956;SDS011;75252;45.438;-73.814;2024-01-10T05:09:17;1.30;;;1.20;;
84956;SDS011;75252;45.438;-73.814;2024-01-10T05:11:43;1.35;;;1.25;;
84956;SDS011;75252;45.438;-73.814;2024-01-10T05:14:12;0.93;;;0.90;;
84956;SDS011;75252;45.438;-73.814;2024-01-10T05:16:38;1.25;;;1.15;;
84956;SDS011;75252;45.438;-73.814;2024-01-10T05:19:04;2.03;;;1.35;;
84956;SDS011;75252;45.438;-73.814;2024-01-10T05:21:33;1.75;;;1.52;;
84956;SDS011;75252;45.438;-73.814;2024-01-10T05:23:59;1.20;;;1.13;;
84956;SDS011;75252;45.438;-73.814;2024-01-10T05:26:25;1.27;;;1.23;;
84956;SDS011;75252;45.438;-73.814;2024-01-10T05:28:51;1.27;;;1.20;;
84956;SDS011;75252;45.438;-73.814;2024-01-10T05:31:16;1.20;;;1.10;;
84956;SDS011;75252;45.438;-73.814;2024-01-10T05:33:42;1.60;;;1.35;;
84956;SDS011;75252;45.438;-73.814;2024-01-10T05:36:09;2.42;;;1.23;;
84956;SDS011;75252;45.438;-73.814;2024-01-10T05:38:38;1.55;;;1.45;;
84956;SDS011;75252;45.438;-73.814;2024-01-10T05:41:05;1.65;;;0.90;;
84956;SDS011;75252;45.438;-73.814;2024-01-10T05:43:31;1.25;;;1.15;;
84956;SDS011;75252;45.438;-73.814;2024-01-10T05:45:57;1.60;;;1.50;;
84956;SDS011;75252;45.438;-73.814;2024-01-10T05:48:24;1.23;;;1.13;;
84956;SDS011;75252;45.438;-73.814;2024-01-10T05:50:50;1.73;;;1.63;;
84956;SDS011;75252;45.438;-73.814;2024-01-10T05:53:16;1.30;;;0.88;;
84956;SDS011;75252;45.438;-73.814;2024-01-10T05:55:45;1.13;;;1.02;;
84956;SDS011;75252;45.438;-73.814;2024-01-10T05:58:11;1.83;;;1.73;;
84956;SDS011;75252;45.438;-73.814;2024-01-10T06:00:37;1.60;;;1.50;;
84956;SDS011;75252;45.438;-73.814;2024-01-10T06:03:03;1.42;;;1.02;;
84956;SDS011;75252;45.438;-73.814;2024-01-10T06:05:29;0.90;;;0.90;;
84956;SDS011;75252;45.438;-73.814;2024-01-10T06:07:56;2.03;;;1.60;;
84956;SDS011;75252;45.438;-73.814;2024-01-10T06:10:22;1.15;;;1.15;;
84956;SDS011;75252;45.438;-73.814;2024-01-10T06:12:49;2.08;;;1.00;;
84956;SDS011;75252;45.438;-73.814;2024-01-10T06:15:15;2.20;;;1.60;;
84956;SDS011;75252;45.438;-73.814;2024-01-10T06:17:41;2.22;;;1.42;;
84956;SDS011;75252;45.438;-73.814;2024-01-10T06:20:07;1.40;;;1.30;;
84956;SDS011;75252;45.438;-73.814;2024-01-10T06:22:33;1.48;;;1.33;;
84956;SDS011;75252;45.438;-73.814;2024-01-10T06:24:59;2.75;;;1.40;;
84956;SDS011;75252;45.438;-73.814;2024-01-10T06:27:25;1.40;;;1.30;;
84956;SDS011;75252;45.438;-73.814;2024-01-10T06:29:51;1.13;;;1.13;;
84956;SDS011;75252;45.438;-73.814;2024-01-10T06:32:16;1.27;;;1.17;;
84956;SDS011;75252;45.438;-73.814;2024-01-10T06:34:42;1.73;;;1.20;;
84956;SDS011;75252;45.438;-73.814;2024-01-10T06:37:08;1.25;;;1.23;;
84956;SDS011;75252;45.438;-73.814;2024-01-10T06:39:34;1.23;;;1.10;;
84956;SDS011;75252;45.438;-73.814;2024-01-10T06:42:01;1.23;;;1.13;;
84956;SDS011;75252;45.438;-73.814;2024-01-10T06:44:29;1.60;;;1.60;;
84956;SDS011;75252;45.438;-73.814;2024-01-10T06:46:55;1.15;;;1.05;;
84956;SDS011;75252;45.438;-73.814;2024-01-10T06:49:21;2.05;;;1.15;;
84956;SDS011;75252;45.438;-73.814;2024-01-10T06:51:47;2.80;;;1.00;;
84956;SDS011;75252;45.438;-73.814;2024-01-10T06:54:13;1.40;;;1.30;;
84956;SDS011;75252;45.438;-73.814;2024-01-10T06:56:39;1.95;;;0.98;;
84956;SDS011;75252;45.438;-73.814;2024-01-10T06:59:06;1.45;;;1.30;;
84956;SDS011;75252;45.438;-73.814;2024-01-10T07:01:32;0.93;;;0.90;;
84956;SDS011;75252;45.438;-73.814;2024-01-10T07:03:58;1.65;;;1.20;;
84956;SDS011;75252;45.438;-73.814;2024-01-10T07:06:24;0.77;;;0.77;;
84956;SDS011;75252;45.438;-73.814;2024-01-10T07:08:50;1.05;;;1.05;;
84956;SDS011;75252;45.438;-73.814;2024-01-10T07:11:16;0.90;;;0.90;;
84956;SDS011;75252;45.438;-73.814;2024-01-10T07:13:43;1.95;;;0.80;;
84956;SDS011;75252;45.438;-73.814;2024-01-10T07:16:09;1.77;;;1.05;;
84956;SDS011;75252;45.438;-73.814;2024-01-10T07:18:35;0.82;;;0.82;;
84956;SDS011;75252;45.438;-73.814;2024-01-10T07:21:01;0.88;;;0.88;;
84956;SDS011;75252;45.438;-73.814;2024-01-10T07:23:27;1.20;;;1.10;;
84956;SDS011;75252;45.438;-73.814;2024-01-10T07:25:53;0.98;;;0.98;;
84956;SDS011;75252;45.438;-73.814;2024-01-10T07:28:19;0.88;;;0.88;;
84956;SDS011;75252;45.438;-73.814;2024-01-10T07:30:45;2.88;;;1.05;;
84956;SDS011;75252;45.438;-73.814;2024-01-10T07:33:12;0.93;;;0.93;;
84956;SDS011;75252;45.438;-73.814;2024-01-10T07:35:37;1.05;;;0.95;;
84956;SDS011;75252;45.438;-73.814;2024-01-10T07:38:04;0.82;;;0.82;;
84956;SDS011;75252;45.438;-73.814;2024-01-10T07:40:34;1.42;;;1.33;;
84956;SDS011;75252;45.438;-73.814;2024-01-10T07:43:00;1.98;;;1.05;;
84956;SDS011;75252;45.438;-73.814;2024-01-10T07:45:26;0.85;;;0.85;;
84956;SDS011;75252;45.438;-73.814;2024-01-10T07:47:52;1.10;;;1.02;;
84956;SDS011;75252;45.438;-73.814;2024-01-10T07:50:18;1.25;;;1.15;;
84956;SDS011;75252;45.438;-73.814;2024-01-10T07:52:45;0.70;;;0.70;;
84956;SDS011;75252;45.438;-73.814;2024-01-10T07:55:11;0.93;;;0.93;;
84956;SDS011;75252;45.438;-73.814;2024-01-10T07:57:37;1.20;;;1.15;;
84956;SDS011;75252;45.438;-73.814;2024-01-10T08:00:04;0.90;;;0.90;;
84956;SDS011;75252;45.438;-73.814;2024-01-10T08:02:34;0.73;;;0.73;;
84956;SDS011;75252;45.438;-73.814;2024-01-10T08:05:00;1.15;;;1.15;;
84956;SDS011;75252;45.438;-73.814;2024-01-10T08:07:30;0.88;;;0.88;;
84956;SDS011;75252;45.438;-73.814;2024-01-10T08:09:58;1.30;;;1.20;;
84956;SDS011;75252;45.438;-73.814;2024-01-10T08:12:25;1.27;;;1.17;;
84956;SDS011;75252;45.438;-73.814;2024-01-10T08:14:51;12.20;;;1.42;;
84956;SDS011;75252;45.438;-73.814;2024-01-10T08:17:17;1.20;;;1.10;;
84956;SDS011;75252;45.438;-73.814;2024-01-10T08:19:43;0.80;;;0.80;;
84956;SDS011;75252;45.438;-73.814;2024-01-10T08:22:08;1.40;;;1.30;;
84956;SDS011;75252;45.438;-73.814;2024-01-10T08:24:34;1.00;;;1.00;;
84956;SDS011;75252;45.438;-73.814;2024-01-10T08:27:00;2.22;;;1.27;;
84956;SDS011;75252;45.438;-73.814;2024-01-10T08:29:26;1.30;;;1.15;;
84956;SDS011;75252;45.438;-73.814;2024-01-10T08:31:56;1.10;;;1.00;;
84956;SDS011;75252;45.438;-73.814;2024-01-10T08:34:23;0.82;;;0.82;;
84956;SDS011;75252;45.438;-73.814;2024-01-10T08:36:49;1.05;;;1.05;;
84956;SDS011;75252;45.438;-73.814;2024-01-10T08:39:16;0.95;;;0.95;;
84956;SDS011;75252;45.438;-73.814;2024-01-10T08:41:42;1.48;;;1.38;;
84956;SDS011;75252;45.438;-73.814;2024-01-10T08:44:10;1.67;;;1.08;;
84956;SDS011;75252;45.438;-73.814;2024-01-10T08:46:36;1.20;;;1.05;;
84956;SDS011;75252;45.438;-73.814;2024-01-10T08:49:02;0.80;;;0.80;;
84956;SDS011;75252;45.438;-73.814;2024-01-10T08:51:28;0.93;;;0.93;;
84956;SDS011;75252;45.438;-73.814;2024-01-10T08:53:54;2.03;;;1.20;;
84956;SDS011;75252;45.438;-73.814;2024-01-10T08:56:19;0.82;;;0.82;;
84956;SDS011;75252;45.438;-73.814;2024-01-10T08:58:45;2.97;;;1.13;;
84956;SDS011;75252;45.438;-73.814;2024-01-10T09:01:12;2.15;;;0.95;;
84956;SDS011;75252;45.438;-73.814;2024-01-10T09:03:37;1.50;;;1.20;;
84956;SDS011;75252;45.438;-73.814;2024-01-10T09:06:04;4.03;;;1.38;;
84956;SDS011;75252;45.438;-73.814;2024-01-10T09:08:33;1.48;;;0.90;;
84956;SDS011;75252;45.438;-73.814;2024-01-10T09:11:02;2.05;;;1.38;;
84956;SDS011;75252;45.438;-73.814;2024-01-10T09:13:28;7.60;;;1.35;;
84956;SDS011;75252;45.438;-73.814;2024-01-10T09:15:54;1.33;;;1.23;;
84956;SDS011;75252;45.438;-73.814;2024-01-10T09:18:20;4.25;;;1.02;;
84956;SDS011;75252;45.438;-73.814;2024-01-10T09:20:46;3.20;;;1.25;;
84956;SDS011;75252;45.438;-73.814;2024-01-10T09:23:13;3.95;;;1.70;;
84956;SDS011;75252;45.438;-73.814;2024-01-10T09:25:39;1.65;;;1.48;;
84956;SDS011;75252;45.438;-73.814;2024-01-10T09:28:05;3.72;;;1.38;;
84956;SDS011;75252;45.438;-73.814;2024-01-10T09:30:31;2.75;;;1.60;;
84956;SDS011;75252;45.438;-73.814;2024-01-10T09:32:57;1.42;;;1.33;;
84956;SDS011;75252;45.438;-73.814;2024-01-10T09:35:24;3.10;;;0.90;;
84956;SDS011;75252;45.438;-73.814;2024-01-10T09:37:50;1.52;;;1.10;;
84956;SDS011;75252;45.438;-73.814;2024-01-10T09:40:16;1.02;;;0.90;;
84956;SDS011;75252;45.438;-73.814;2024-01-10T09:42:45;1.00;;;0.93;;
84956;SDS011;75252;45.438;-73.814;2024-01-10T09:45:14;0.98;;;0.90;;
84956;SDS011;75252;45.438;-73.814;2024-01-10T09:47:42;1.42;;;1.10;;
84956;SDS011;75252;45.438;-73.814;2024-01-10T09:50:13;0.82;;;0.82;;
84956;SDS011;75252;45.438;-73.814;2024-01-10T09:53:22;0.70;;;0.70;;
84956;SDS011;75252;45.438;-73.814;2024-01-10T09:55:33;1.00;;;1.00;;
84956;SDS011;75252;45.438;-73.814;2024-01-10T09:58:10;0.65;;;0.65;;
84956;SDS011;75252;45.438;-73.814;2024-01-10T10:00:36;0.80;;;0.80;;
84956;SDS011;75252;45.438;-73.814;2024-01-10T10:03:02;0.63;;;0.63;;
84956;SDS011;75252;45.438;-73.814;2024-01-10T10:05:32;0.57;;;0.57;;
84956;SDS011;75252;45.438;-73.814;2024-01-10T10:07:59;0.82;;;0.82;;
84956;SDS011;75252;45.438;-73.814;2024-01-10T10:10:25;1.10;;;1.10;;
84956;SDS011;75252;45.438;-73.814;2024-01-10T10:12:53;3.63;;;0.98;;
84956;SDS011;75252;45.438;-73.814;2024-01-10T10:15:22;3.42;;;1.20;;
84956;SDS011;75252;45.438;-73.814;2024-01-10T10:17:51;1.55;;;1.33;;
84956;SDS011;75252;45.438;-73.814;2024-01-10T10:20:29;4.28;;;1.05;;
84956;SDS011;75252;45.438;-73.814;2024-01-10T10:23:05;4.35;;;1.75;;
84956;SDS011;75252;45.438;-73.814;2024-01-10T10:25:44;2.00;;;1.38;;
84956;SDS011;75252;45.438;-73.814;2024-01-10T10:28:12;1.40;;;1.08;;
84956;SDS011;75252;45.438;-73.814;2024-01-10T10:30:38;1.27;;;1.20;;
84956;SDS011;75252;45.438;-73.814;2024-01-10T10:33:04;2.33;;;1.50;;
84956;SDS011;75252;45.438;-73.814;2024-01-10T10:35:33;1.48;;;1.23;;
84956;SDS011;75252;45.438;-73.814;2024-01-10T10:38:00;2.15;;;1.63;;
84956;SDS011;75252;45.438;-73.814;2024-01-10T10:40:25;1.67;;;1.35;;
84956;SDS011;75252;45.438;-73.814;2024-01-10T10:42:55;1.52;;;1.33;;
84956;SDS011;75252;45.438;-73.814;2024-01-10T10:45:22;2.85;;;1.33;;
84956;SDS011;75252;45.438;-73.814;2024-01-10T10:47:53;2.72;;;1.33;;
84956;SDS011;75252;45.438;-73.814;2024-01-10T10:50:23;3.90;;;1.92;;
84956;SDS011;75252;45.438;-73.814;2024-01-10T10:52:51;1.55;;;1.45;;
84956;SDS011;75252;45.438;-73.814;2024-01-10T10:55:19;3.75;;;1.50;;
84956;SDS011;75252;45.438;-73.814;2024-01-10T10:57:49;3.22;;;1.88;;
84956;SDS011;75252;45.438;-73.814;2024-01-10T11:00:18;3.13;;;1.73;;
84956;SDS011;75252;45.438;-73.814;2024-01-10T11:02:45;2.97;;;1.60;;
84956;SDS011;75252;45.438;-73.814;2024-01-10T11:05:12;5.00;;;2.05;;
84956;SDS011;75252;45.438;-73.814;2024-01-10T11:07:38;5.00;;;1.52;;
84956;SDS011;75252;45.438;-73.814;2024-01-10T11:10:08;1.90;;;1.52;;
84956;SDS011;75252;45.438;-73.814;2024-01-10T11:18:38;2.58;;;1.63;;
84956;SDS011;75252;45.438;-73.814;2024-01-10T11:24:03;4.80;;;1.90;;
84956;SDS011;75252;45.438;-73.814;2024-01-10T11:26:31;2.33;;;1.48;;
84956;SDS011;75252;45.438;-73.814;2024-01-10T11:28:58;2.85;;;1.73;;
84956;SDS011;75252;45.438;-73.814;2024-01-10T11:31:29;4.88;;;1.95;;
84956;SDS011;75252;45.438;-73.814;2024-01-10T11:33:56;2.25;;;1.58;;
84956;SDS011;75252;45.438;-73.814;2024-01-10T11:36:23;1.83;;;1.65;;
84956;SDS011;75252;45.438;-73.814;2024-01-10T11:41:34;3.83;;;1.73;;
84956;SDS011;75252;45.438;-73.814;2024-01-10T11:46:39;2.85;;;1.80;;
84956;SDS011;75252;45.438;-73.814;2024-01-10T11:49:12;3.92;;;1.95;;
84956;SDS011;75252;45.438;-73.814;2024-01-10T11:51:43;1.65;;;1.55;;
84956;SDS011;75252;45.438;-73.814;2024-01-10T11:59:43;3.75;;;2.22;;
84956;SDS011;75252;45.438;-73.814;2024-01-10T12:02:15;5.93;;;2.13;;
84956;SDS011;75252;45.438;-73.814;2024-01-10T12:04:43;3.80;;;1.92;;
84956;SDS011;75252;45.438;-73.814;2024-01-10T12:07:11;4.82;;;2.10;;
84956;SDS011;75252;45.438;-73.814;2024-01-10T12:09:37;2.17;;;1.98;;
84956;SDS011;75252;45.438;-73.814;2024-01-10T12:12:03;2.88;;;1.85;;
84956;SDS011;75252;45.438;-73.814;2024-01-10T12:14:29;4.45;;;1.90;;
84956;SDS011;75252;45.438;-73.814;2024-01-10T12:16:59;3.17;;;2.13;;
84956;SDS011;75252;45.438;-73.814;2024-01-10T12:19:25;2.72;;;2.00;;
84956;SDS011;75252;45.438;-73.814;2024-01-10T12:21:51;2.75;;;2.30;;
84956;SDS011;75252;45.438;-73.814;2024-01-10T12:24:17;4.40;;;2.47;;
84956;SDS011;75252;45.438;-73.814;2024-01-10T12:26:45;5.20;;;2.50;;
84956;SDS011;75252;45.438;-73.814;2024-01-10T12:29:12;2.80;;;2.33;;
84956;SDS011;75252;45.438;-73.814;2024-01-10T12:31:38;5.30;;;2.30;;
84956;SDS011;75252;45.438;-73.814;2024-01-10T12:34:04;5.07;;;3.03;;
84956;SDS011;75252;45.438;-73.814;2024-01-10T12:36:34;4.30;;;2.42;;
84956;SDS011;75252;45.438;-73.814;2024-01-10T12:39:00;4.57;;;2.70;;
84956;SDS011;75252;45.438;-73.814;2024-01-10T12:41:26;5.80;;;2.80;;
84956;SDS011;75252;45.438;-73.814;2024-01-10T12:43:52;6.00;;;2.70;;
84956;SDS011;75252;45.438;-73.814;2024-01-10T12:46:22;5.20;;;3.65;;
84956;SDS011;75252;45.438;-73.814;2024-01-10T12:49:01;6.13;;;2.22;;
84956;SDS011;75252;45.438;-73.814;2024-01-10T12:51:32;4.75;;;2.88;;
84956;SDS011;75252;45.438;-73.814;2024-01-10T12:54:01;4.60;;;2.88;;
84956;SDS011;75252;45.438;-73.814;2024-01-10T12:56:29;3.25;;;2.83;;
84956;SDS011;75252;45.438;-73.814;2024-01-10T12:58:55;4.82;;;3.17;;
84956;SDS011;75252;45.438;-73.814;2024-01-10T13:01:25;3.92;;;2.53;;
84956;SDS011;75252;45.438;-73.814;2024-01-10T13:03:51;6.68;;;3.25;;
84956;SDS011;75252;45.438;-73.814;2024-01-10T13:06:18;4.85;;;2.75;;
84956;SDS011;75252;45.438;-73.814;2024-01-10T13:08:47;2.92;;;2.45;;
84956;SDS011;75252;45.438;-73.814;2024-01-10T13:11:14;4.25;;;2.90;;
84956;SDS011;75252;45.438;-73.814;2024-01-10T13:13:40;3.95;;;3.10;;
84956;SDS011;75252;45.438;-73.814;2024-01-10T13:16:08;4.95;;;3.00;;
84956;SDS011;75252;45.438;-73.814;2024-01-10T13:18:40;4.80;;;3.00;;
84956;SDS011;75252;45.438;-73.814;2024-01-10T13:21:06;4.70;;;2.83;;
84956;SDS011;75252;45.438;-73.814;2024-01-10T13:23:33;3.90;;;2.83;;
84956;SDS011;75252;45.438;-73.814;2024-01-10T13:26:00;4.53;;;3.13;;
84956;SDS011;75252;45.438;-73.814;2024-01-10T13:28:26;6.40;;;3.65;;
84956;SDS011;75252;45.438;-73.814;2024-01-10T13:30:53;6.13;;;3.20;;
84956;SDS011;75252;45.438;-73.814;2024-01-10T13:33:21;5.85;;;2.97;;
84956;SDS011;75252;45.438;-73.814;2024-01-10T13:35:47;7.25;;;3.47;;
84956;SDS011;75252;45.438;-73.814;2024-01-10T13:38:14;5.85;;;3.30;;
84956;SDS011;75252;45.438;-73.814;2024-01-10T13:40:40;7.72;;;3.58;;
84956;SDS011;75252;45.438;-73.814;2024-01-10T13:43:06;4.55;;;3.53;;
84956;SDS011;75252;45.438;-73.814;2024-01-10T13:45:34;6.32;;;3.67;;
84956;SDS011;75252;45.438;-73.814;2024-01-10T13:48:00;5.75;;;4.00;;
84956;SDS011;75252;45.438;-73.814;2024-01-10T13:50:26;6.65;;;3.72;;
84956;SDS011;75252;45.438;-73.814;2024-01-10T13:52:53;8.52;;;3.70;;
84956;SDS011;75252;45.438;-73.814;2024-01-10T13:55:19;7.78;;;4.10;;
84956;SDS011;75252;45.438;-73.814;2024-01-10T13:57:45;4.88;;;4.40;;
84956;SDS011;75252;45.438;-73.814;2024-01-10T14:00:11;4.85;;;4.20;;
84956;SDS011;75252;45.438;-73.814;2024-01-10T14:07:32;4.63;;;4.22;;
84956;SDS011;75252;45.438;-73.814;2024-01-10T14:09:59;5.93;;;4.13;;
84956;SDS011;75252;45.438;-73.814;2024-01-10T14:12:26;6.20;;;4.22;;
84956;SDS011;75252;45.438;-73.814;2024-01-10T14:17:19;9.35;;;6.30;;
84956;SDS011;75252;45.438;-73.814;2024-01-10T14:19:45;10.23;;;6.10;;
84956;SDS011;75252;45.438;-73.814;2024-01-10T14:22:11;6.13;;;5.18;;
84956;SDS011;75252;45.438;-73.814;2024-01-10T14:24:36;5.13;;;4.60;;
84956;SDS011;75252;45.438;-73.814;2024-01-10T14:27:03;8.00;;;5.57;;
84956;SDS011;75252;45.438;-73.814;2024-01-10T14:29:29;5.70;;;4.60;;
84956;SDS011;75252;45.438;-73.814;2024-01-10T14:31:55;5.47;;;4.00;;
84956;SDS011;75252;45.438;-73.814;2024-01-10T14:34:21;7.65;;;5.60;;
84956;SDS011;75252;45.438;-73.814;2024-01-10T14:36:47;5.95;;;4.72;;
84956;SDS011;75252;45.438;-73.814;2024-01-10T14:39:13;7.40;;;4.90;;
84956;SDS011;75252;45.438;-73.814;2024-01-10T14:41:40;6.80;;;4.35;;
84956;SDS011;75252;45.438;-73.814;2024-01-10T14:44:06;5.65;;;4.70;;
84956;SDS011;75252;45.438;-73.814;2024-01-10T14:46:32;5.43;;;4.93;;